createdAt,value
2018-02-18T00:00:55.134Z,24.20
2018-02-18T00:03:28.166Z,22.37
2018-02-18T00:06:01.241Z,23.63
2018-02-18T00:08:35.262Z,19.37
2018-02-18T00:11:08.537Z,20.10
2018-02-18T00:13:41.521Z,24.07
2018-02-18T00:16:14.379Z,23.80
2018-02-18T00:18:46.769Z,22.40
2018-02-18T00:21:19.199Z,23.33
2018-02-18T00:23:51.653Z,23.23
2018-02-18T00:26:24.969Z,19.67
2018-02-18T00:28:57.570Z,27.80
2018-02-18T00:31:30.888Z,21.97
2018-02-18T00:34:03.453Z,25.00
2018-02-18T00:36:35.852Z,24.53
2018-02-18T00:39:09.345Z,25.07
2018-02-18T00:41:42.667Z,30.97
2018-02-18T00:44:15.961Z,19.70
2018-02-18T00:46:48.568Z,22.43
2018-02-18T00:49:21.053Z,20.03
2018-02-18T00:51:53.520Z,30.10
2018-02-18T00:54:26.138Z,24.20
2018-02-18T00:56:58.643Z,23.20
2018-02-18T00:59:31.213Z,30.57
2018-02-18T01:02:03.756Z,25.70
2018-02-18T01:04:36.533Z,24.57
2018-02-18T01:07:09.886Z,27.10
2018-02-18T01:09:42.835Z,28.33
2018-02-18T01:12:15.999Z,31.30
2018-02-18T01:14:49.011Z,26.57
2018-02-18T01:17:22.061Z,29.53
2018-02-18T01:19:55.997Z,22.90
2018-02-18T01:22:28.491Z,28.30
2018-02-18T01:25:01.653Z,30.67
2018-02-18T01:27:34.639Z,26.53
2018-02-18T01:30:07.125Z,26.37
2018-02-18T01:32:40.382Z,28.80
2018-02-18T01:35:13.110Z,29.80
2018-02-18T01:37:45.555Z,22.87
2018-02-18T01:40:18.169Z,27.27
2018-02-18T01:42:50.616Z,28.50
2018-02-18T01:45:23.158Z,24.40
2018-02-18T01:47:55.620Z,29.20
2018-02-18T01:50:36.995Z,29.20
2018-02-18T01:53:10.528Z,33.20
2018-02-18T01:55:43.313Z,30.03
2018-02-18T01:58:17.511Z,26.67
2018-02-18T02:00:50.157Z,35.10
2018-02-18T02:03:22.759Z,26.20
2018-02-18T02:05:56.053Z,30.87
2018-02-18T02:08:28.996Z,31.20
2018-02-18T02:11:01.657Z,27.77
2018-02-18T02:13:34.193Z,28.27
2018-02-18T02:16:06.659Z,31.97
2018-02-18T02:18:39.184Z,41.40
2018-02-18T02:21:11.555Z,30.13
2018-02-18T02:23:44.861Z,30.40
2018-02-18T02:26:17.759Z,31.37
2018-02-18T02:28:50.842Z,30.90
2018-02-18T02:31:23.421Z,34.90
2018-02-18T02:33:56.501Z,34.63
2018-02-18T02:36:29.828Z,33.57
2018-02-18T02:39:02.563Z,26.90
2018-02-18T02:41:35.134Z,32.20
2018-02-18T02:44:07.619Z,30.40
2018-02-18T02:46:40.123Z,38.33
2018-02-18T02:49:12.728Z,34.10
2018-02-18T02:51:45.276Z,43.80
2018-02-18T02:54:17.805Z,33.53
2018-02-18T02:56:50.401Z,26.50
2018-02-18T02:59:23.810Z,37.17
2018-02-18T03:01:56.509Z,25.30
2018-02-18T03:04:28.995Z,42.93
2018-02-18T03:07:01.349Z,31.73
2018-02-18T03:09:33.713Z,37.93
2018-02-18T03:12:06.240Z,36.33
2018-02-18T03:14:38.813Z,33.17
2018-02-18T03:17:11.472Z,30.17
2018-02-18T03:19:43.915Z,32.90
2018-02-18T03:22:16.295Z,27.67
2018-02-18T03:24:48.917Z,32.43
2018-02-18T03:27:21.433Z,33.97
2018-02-18T03:29:54.111Z,32.07
2018-02-18T03:32:26.903Z,36.80
2018-02-18T03:35:00.092Z,34.23
2018-02-18T03:37:34.232Z,30.40
2018-02-18T03:40:07.456Z,30.93
2018-02-18T03:42:41.215Z,36.17
2018-02-18T03:45:14.497Z,34.20
2018-02-18T03:47:48.641Z,37.83
2018-02-18T03:50:21.432Z,38.20
2018-02-18T03:52:53.895Z,35.00
2018-02-18T03:55:27.008Z,36.47
2018-02-18T03:58:00.525Z,39.60
2018-02-18T04:00:33.388Z,32.67
2018-02-18T04:03:05.941Z,31.40
2018-02-18T04:05:38.359Z,34.60
2018-02-18T04:08:11.867Z,33.20
2018-02-18T04:10:44.327Z,35.67
2018-02-18T04:13:16.741Z,33.47
2018-02-18T04:15:49.119Z,37.73
2018-02-18T04:18:23.278Z,41.53
2018-02-18T04:20:56.271Z,37.57
2018-02-18T04:23:29.497Z,48.10
2018-02-18T04:26:02.335Z,44.50
2018-02-18T04:28:35.645Z,37.80
2018-02-18T04:31:08.650Z,30.00
2018-02-18T04:33:41.349Z,35.30
2018-02-18T04:36:13.917Z,33.30
2018-02-18T04:38:47.264Z,28.33
2018-02-18T04:41:20.179Z,34.03
2018-02-18T04:43:53.797Z,36.70
2018-02-18T04:46:26.240Z,32.57
2018-02-18T04:48:59.553Z,30.73
2018-02-18T04:51:33.353Z,39.40
2018-02-18T04:54:06.285Z,40.43
2018-02-18T04:56:39.111Z,25.90
2018-02-18T04:59:11.578Z,35.00
2018-02-18T05:01:44.370Z,53.10
2018-02-18T05:04:17.061Z,35.93
2018-02-18T05:06:49.434Z,36.60
2018-02-18T05:09:22.674Z,53.90
2018-02-18T05:11:56.180Z,42.27
2018-02-18T05:14:28.619Z,38.30
2018-02-18T05:17:00.929Z,40.27
2018-02-18T05:19:33.278Z,52.33
2018-02-18T05:22:05.557Z,36.10
2018-02-18T05:24:38.049Z,38.27
2018-02-18T05:27:11.119Z,36.97
2018-02-18T05:29:43.915Z,38.00
2018-02-18T05:32:17.166Z,45.30
2018-02-18T05:34:49.994Z,36.87
2018-02-18T05:37:22.461Z,37.23
2018-02-18T05:39:55.030Z,39.13
2018-02-18T05:42:28.298Z,38.90
2018-02-18T05:45:01.311Z,49.63
2018-02-18T05:47:34.602Z,41.17
2018-02-18T05:50:07.510Z,53.73
2018-02-18T05:52:39.911Z,41.50
2018-02-18T05:55:12.739Z,51.30
2018-02-18T05:57:47.455Z,41.80
2018-02-18T06:00:20.860Z,47.47
2018-02-18T06:02:53.182Z,36.70
2018-02-18T06:05:26.261Z,54.63
2018-02-18T06:07:59.663Z,49.40
2018-02-18T06:10:32.234Z,53.70
2018-02-18T06:13:05.273Z,51.50
2018-02-18T06:15:38.577Z,43.70
2018-02-18T06:18:11.299Z,41.03
2018-02-18T06:20:43.801Z,56.03
2018-02-18T06:23:16.190Z,53.37
2018-02-18T06:25:48.733Z,51.00
2018-02-18T06:28:22.273Z,44.23
2018-02-18T06:30:55.612Z,59.83
2018-02-18T06:33:28.109Z,48.40
2018-02-18T06:36:00.576Z,57.40
2018-02-18T06:38:33.154Z,57.33
2018-02-18T06:41:05.503Z,56.83
2018-02-18T06:43:37.803Z,64.87
2018-02-18T06:46:10.408Z,53.37
2018-02-18T06:48:43.000Z,55.57
2018-02-18T06:51:15.803Z,64.27
2018-02-18T06:53:48.387Z,59.10
2018-02-18T06:56:21.057Z,53.80
2018-02-18T06:58:54.260Z,55.43
2018-02-18T07:01:27.139Z,45.13
2018-02-18T07:03:59.681Z,57.40
2018-02-18T07:06:32.401Z,64.47
2018-02-18T07:09:06.413Z,58.87
2018-02-18T07:11:39.572Z,50.87
2018-02-18T07:14:12.414Z,55.97
2018-02-18T07:16:45.491Z,57.70
2018-02-18T07:19:18.779Z,59.83
2018-02-18T07:21:52.762Z,67.03
2018-02-18T07:24:25.623Z,63.00
2018-02-18T07:26:58.149Z,54.23
2018-02-18T07:29:30.613Z,58.47
2018-02-18T07:32:02.988Z,59.90
2018-02-18T07:34:35.422Z,55.50
2018-02-18T07:37:07.918Z,61.47
2018-02-18T07:39:41.294Z,61.67
2018-02-18T07:42:14.533Z,47.07
2018-02-18T07:44:47.251Z,62.90
2018-02-18T07:47:19.846Z,56.07
2018-02-18T07:49:52.327Z,47.60
2018-02-18T07:52:25.554Z,53.80
2018-02-18T07:54:58.089Z,62.93
2018-02-18T07:58:00.180Z,58.37
2018-02-18T08:00:33.657Z,52.23
2018-02-18T08:03:07.679Z,50.20
2018-02-18T08:05:41.069Z,58.90
2018-02-18T08:08:13.695Z,85.67
2018-02-18T08:10:46.030Z,58.27
2018-02-18T08:13:18.710Z,45.50
2018-02-18T08:15:51.184Z,55.03
2018-02-18T08:18:25.608Z,45.60
2018-02-18T08:20:58.901Z,96.17
2018-02-18T08:23:31.803Z,52.50
2018-02-18T08:26:04.970Z,52.50
2018-02-18T08:28:37.482Z,43.00
2018-02-18T08:31:09.825Z,48.50
2018-02-18T08:33:43.038Z,39.43
2018-02-18T08:36:15.401Z,44.47
2018-02-18T08:38:47.862Z,45.87
2018-02-18T08:41:20.336Z,50.87
2018-02-18T08:43:53.691Z,42.23
2018-02-18T08:46:27.911Z,43.90
2018-02-18T08:49:00.662Z,46.13
2018-02-18T08:51:33.976Z,41.87
2018-02-18T08:54:06.668Z,31.93
2018-02-18T08:56:40.215Z,43.20
2018-02-18T08:59:12.640Z,48.90
2018-02-18T09:01:44.998Z,43.17
2018-02-18T09:04:18.505Z,46.67
2018-02-18T09:06:51.868Z,41.73
2018-02-18T09:09:25.633Z,47.00
2018-02-18T09:11:58.972Z,46.40
2018-02-18T09:14:31.850Z,43.10
2018-02-18T09:17:04.435Z,46.17
2018-02-18T09:19:37.020Z,45.50
2018-02-18T09:22:09.620Z,42.87
2018-02-18T09:24:42.334Z,30.80
2018-02-18T09:27:14.664Z,41.90
2018-02-18T09:29:47.410Z,33.87
2018-02-18T09:32:20.215Z,34.33
2018-02-18T09:34:53.527Z,40.37
2018-02-18T09:37:27.343Z,36.50
2018-02-18T09:40:00.407Z,43.83
2018-02-18T09:42:32.891Z,49.43
2018-02-18T09:45:05.877Z,47.00
2018-02-18T09:47:39.622Z,47.17
2018-02-18T09:50:12.115Z,57.20
2018-02-18T09:52:45.506Z,49.20
2018-02-18T09:55:18.984Z,48.87
2018-02-18T09:57:53.343Z,58.60
2018-02-18T10:00:25.874Z,48.03
2018-02-18T10:02:58.557Z,51.07
2018-02-18T10:05:31.889Z,59.70
2018-02-18T10:08:05.172Z,57.27
2018-02-18T10:10:37.624Z,45.43
2018-02-18T10:13:10.908Z,46.80
2018-02-18T10:15:43.675Z,54.97
2018-02-18T10:18:18.120Z,58.40
2018-02-18T10:20:51.404Z,53.23
2018-02-18T10:23:24.063Z,61.47
2018-02-18T10:25:57.380Z,49.87
2018-02-18T10:28:30.245Z,51.97
2018-02-18T10:31:02.937Z,51.10
2018-02-18T10:33:35.407Z,48.67
2018-02-18T10:36:09.665Z,49.17
2018-02-18T10:38:43.161Z,50.80
2018-02-18T10:41:16.705Z,57.77
2018-02-18T10:43:50.109Z,65.17
2018-02-18T10:46:23.088Z,48.30
2018-02-18T10:48:55.612Z,49.23
2018-02-18T10:51:29.084Z,43.70
2018-02-18T10:54:02.107Z,72.60
2018-02-18T10:56:35.358Z,60.20
2018-02-18T10:59:08.661Z,55.53
2018-02-18T11:01:41.867Z,51.20
2018-02-18T11:04:15.223Z,57.70
2018-02-18T11:06:47.963Z,57.60
2018-02-18T11:09:20.587Z,48.70
2018-02-18T11:11:53.186Z,56.23
2018-02-18T11:14:25.619Z,44.90
2018-02-18T11:16:59.358Z,51.17
2018-02-18T11:19:32.548Z,47.17
2018-02-18T11:22:06.009Z,51.70
2018-02-18T11:24:38.745Z,54.23
2018-02-18T11:27:13.181Z,45.33
2018-02-18T11:29:45.861Z,40.67
2018-02-18T11:32:21.089Z,47.50
2018-02-18T11:34:53.505Z,55.70
2018-02-18T11:37:26.214Z,47.80
2018-02-18T11:40:00.028Z,56.77
2018-02-18T11:42:32.708Z,49.13
2018-02-18T11:45:05.543Z,48.20
2018-02-18T11:47:39.427Z,44.57
2018-02-18T11:50:13.679Z,48.80
2018-02-18T11:52:46.992Z,45.30
2018-02-18T11:55:20.277Z,46.93
2018-02-18T11:57:53.634Z,46.67
2018-02-18T12:00:26.494Z,42.00
2018-02-18T12:03:00.087Z,48.30
2018-02-18T12:05:32.981Z,30.90
2018-02-18T12:08:07.344Z,42.17
2018-02-18T12:10:40.345Z,37.70
2018-02-18T12:13:12.863Z,31.63
2018-02-18T12:15:46.142Z,30.77
2018-02-18T12:18:19.983Z,27.17
2018-02-18T12:20:53.262Z,27.17
2018-02-18T12:23:26.562Z,27.90
2018-02-18T12:25:59.510Z,27.33
2018-02-18T12:28:31.956Z,27.27
2018-02-18T12:31:04.556Z,24.40
2018-02-18T12:33:37.914Z,28.03
2018-02-18T12:36:11.274Z,30.23
2018-02-18T12:38:43.766Z,29.10
2018-02-18T12:41:16.082Z,29.77
2018-02-18T12:43:48.635Z,29.27
2018-02-18T12:46:22.690Z,27.97
2018-02-18T12:48:55.652Z,34.13
2018-02-18T12:51:28.066Z,32.60
2018-02-18T12:54:00.650Z,27.20
2018-02-18T12:56:33.195Z,29.60
2018-02-18T12:59:05.772Z,28.43
2018-02-18T13:01:38.368Z,32.77
2018-02-18T13:04:10.921Z,25.27
2018-02-18T13:06:43.834Z,27.70
2018-02-18T13:09:16.961Z,30.00
2018-02-18T13:11:49.636Z,27.03
2018-02-18T13:14:23.200Z,21.97
2018-02-18T13:16:56.107Z,23.50
2018-02-18T13:19:29.513Z,32.47
2018-02-18T13:22:02.742Z,23.90
2018-02-18T13:24:35.149Z,27.47
2018-02-18T13:27:07.702Z,27.67
2018-02-18T13:29:40.259Z,31.27
2018-02-18T13:32:13.564Z,33.93
2018-02-18T13:34:46.275Z,26.77
2018-02-18T13:37:19.432Z,22.20
2018-02-18T13:39:52.195Z,27.37
2018-02-18T13:42:24.835Z,23.30
2018-02-18T13:44:58.134Z,21.77
2018-02-18T13:47:31.281Z,23.93
2018-02-18T13:50:04.197Z,23.93
2018-02-18T13:52:37.486Z,26.87
2018-02-18T13:55:09.976Z,28.00
2018-02-18T13:57:42.515Z,30.43
2018-02-18T14:00:15.069Z,32.37
2018-02-18T14:02:47.685Z,39.07
2018-02-18T14:05:20.972Z,29.63
2018-02-18T14:07:54.560Z,32.57
2018-02-18T14:10:26.927Z,32.63
2018-02-18T14:12:59.531Z,34.83
2018-02-18T14:15:32.103Z,30.13
2018-02-18T14:18:05.375Z,32.10
2018-02-18T14:20:38.479Z,28.47
2018-02-18T14:23:11.450Z,30.30
2018-02-18T14:25:44.926Z,23.07
2018-02-18T14:28:19.611Z,21.77
2018-02-18T14:30:52.032Z,24.00
2018-02-18T14:33:24.891Z,22.60
2018-02-18T14:35:57.322Z,17.10
2018-02-18T14:38:30.390Z,23.40
2018-02-18T14:41:03.147Z,21.77
2018-02-18T14:43:54.771Z,17.50
2018-02-18T14:46:46.728Z,17.83
2018-02-18T14:49:38.438Z,16.17
2018-02-18T14:52:30.920Z,17.10
2018-02-18T14:55:35.045Z,22.27
2018-02-18T15:01:13.823Z,24.07
2018-02-18T15:03:46.539Z,19.83
2018-02-18T15:06:19.053Z,17.90
2018-02-18T15:08:51.662Z,19.37
2018-02-18T15:11:24.247Z,21.03
2018-02-18T15:13:57.495Z,14.27
2018-02-18T15:16:30.232Z,16.03
2018-02-18T15:19:02.759Z,18.10
2018-02-18T15:21:35.288Z,16.90
2018-02-18T15:24:08.643Z,17.27
2018-02-18T15:26:41.458Z,17.87
2018-02-18T15:29:14.391Z,19.33
2018-02-18T15:31:47.511Z,20.27
2018-02-18T15:34:20.146Z,19.13
2018-02-18T15:36:54.243Z,17.27
2018-02-18T15:39:27.553Z,19.73
2018-02-18T15:42:00.654Z,16.87
2018-02-18T15:44:34.071Z,16.73
2018-02-18T15:47:06.753Z,18.83
2018-02-18T15:49:39.205Z,21.13
2018-02-18T15:52:13.206Z,20.07
2018-02-18T15:54:49.459Z,18.00
2018-02-18T15:57:22.980Z,20.87
2018-02-18T15:59:56.404Z,21.13
2018-02-18T16:02:30.392Z,27.20
2018-02-18T16:05:03.787Z,13.67
2018-02-18T16:07:37.064Z,16.37
2018-02-18T16:10:10.856Z,15.83
2018-02-18T16:12:44.070Z,14.37
2018-02-18T16:15:17.309Z,15.40
2018-02-18T16:17:50.812Z,19.10
2018-02-18T16:20:24.083Z,16.20
2018-02-18T16:22:57.346Z,14.97
2018-02-18T16:25:30.148Z,19.70
2018-02-18T16:28:02.662Z,16.70
2018-02-18T16:30:35.266Z,14.70
2018-02-18T16:33:08.141Z,23.40
2018-02-18T16:35:41.447Z,20.70
2018-02-18T16:38:14.021Z,18.90
2018-02-18T16:40:46.751Z,24.60
2018-02-18T16:43:19.992Z,28.97
2018-02-18T16:45:53.314Z,17.77
2018-02-18T16:48:27.181Z,21.30
2018-02-18T16:50:59.733Z,19.43
2018-02-18T16:53:33.141Z,19.23
2018-02-18T16:56:06.181Z,24.80
2018-02-18T16:58:38.811Z,19.43
2018-02-18T17:01:11.371Z,23.43
2018-02-18T17:03:45.504Z,23.17
2018-02-18T17:06:18.453Z,20.93
2018-02-18T17:08:50.898Z,20.27
2018-02-18T17:11:24.244Z,27.17
2018-02-18T17:13:56.899Z,24.87
2018-02-18T17:16:30.227Z,26.70
2018-02-18T17:19:03.067Z,28.67
2018-02-18T17:21:36.438Z,32.63
2018-02-18T17:24:09.686Z,28.43
2018-02-18T17:26:43.084Z,22.40
2018-02-18T17:29:16.495Z,25.70
2018-02-18T17:31:49.138Z,24.23
2018-02-18T17:34:21.912Z,24.00
2018-02-18T17:40:07.453Z,31.27
2018-02-18T17:42:40.879Z,28.30
2018-02-18T17:45:14.296Z,29.80
2018-02-18T17:47:46.942Z,25.50
2018-02-18T17:50:20.140Z,27.40
2018-02-18T17:52:52.652Z,28.90
2018-02-18T17:55:26.026Z,27.70
2018-02-18T17:57:59.705Z,28.10
2018-02-18T18:00:33.830Z,34.37
2018-02-18T18:03:07.150Z,27.90
2018-02-18T18:05:40.453Z,30.90
2018-02-18T18:08:13.599Z,34.67
2018-02-18T18:10:46.352Z,30.73
2018-02-18T18:13:19.976Z,32.37
2018-02-18T18:15:53.636Z,33.20
2018-02-18T18:18:27.043Z,34.00
2018-02-18T18:21:01.141Z,31.33
2018-02-18T18:23:34.739Z,25.43
2018-02-18T18:26:09.563Z,35.57
2018-02-18T18:28:43.682Z,33.70
2018-02-18T18:31:17.272Z,31.90
2018-02-18T18:33:51.178Z,29.50
2018-02-18T18:36:25.395Z,32.63
2018-02-18T18:38:59.913Z,39.23
2018-02-18T18:41:35.900Z,37.90
2018-02-18T18:44:11.824Z,33.50
2018-02-18T18:46:46.212Z,29.10
2018-02-18T18:49:22.010Z,37.80
2018-02-18T18:51:57.729Z,35.87
2018-02-18T18:54:33.398Z,45.17
2018-02-18T18:57:08.503Z,40.00
2018-02-18T18:59:43.923Z,31.70
2018-02-18T19:02:18.740Z,30.70
2018-02-18T19:04:54.019Z,35.92
2018-02-18T19:07:29.395Z,33.80
2018-02-18T19:10:06.231Z,35.03
2018-02-18T19:12:41.466Z,36.10
2018-02-18T19:15:16.371Z,40.53
2018-02-18T19:17:51.757Z,35.87
2018-02-18T19:20:28.097Z,43.10
2018-02-18T19:23:03.927Z,37.03
2018-02-18T19:25:39.868Z,36.47
2018-02-18T19:28:16.289Z,42.13
2018-02-18T19:30:51.122Z,34.60
2018-02-18T19:33:37.769Z,39.47
2018-02-18T19:36:13.400Z,33.23
2018-02-18T19:38:49.287Z,33.83
2018-02-18T19:41:24.151Z,33.83
2018-02-18T19:44:00.947Z,35.83
2018-02-18T19:46:36.888Z,32.50
2018-02-18T19:49:11.892Z,34.80
2018-02-18T19:51:47.477Z,44.77
2018-02-18T19:54:23.210Z,39.07
2018-02-18T19:56:58.732Z,38.47
2018-02-18T19:59:34.547Z,40.57
2018-02-18T20:02:10.363Z,46.17
2018-02-18T20:04:46.010Z,43.47
2018-02-18T20:07:21.384Z,48.40
2018-02-18T20:09:56.993Z,44.70
2018-02-18T20:12:32.363Z,32.87
2018-02-18T20:15:08.198Z,53.57
2018-02-18T20:17:43.423Z,43.77
2018-02-18T20:20:18.542Z,38.37
2018-02-18T20:22:53.951Z,45.17
2018-02-18T20:25:29.085Z,40.80
2018-02-18T20:28:05.002Z,53.03
2018-02-18T20:30:41.053Z,44.60
2018-02-18T20:33:16.133Z,41.37
2018-02-18T20:35:52.492Z,43.37
2018-02-18T20:38:27.940Z,45.83
2018-02-18T20:41:04.227Z,38.43
2018-02-18T20:43:40.556Z,47.00
2018-02-18T20:46:17.028Z,44.73
2018-02-18T20:48:52.315Z,46.57
2018-02-18T20:51:28.050Z,52.50
2018-02-18T20:54:03.139Z,43.43
2018-02-18T20:56:38.962Z,42.47
2018-02-18T20:59:14.910Z,48.80
2018-02-18T21:01:50.612Z,56.17
2018-02-18T21:04:25.952Z,45.37
2018-02-18T21:07:01.829Z,39.97
2018-02-18T21:09:37.778Z,59.17
2018-02-18T21:12:14.488Z,43.50
2018-02-18T21:14:50.065Z,49.00
2018-02-18T21:17:26.059Z,58.03
2018-02-18T21:20:01.100Z,57.03
2018-02-18T21:22:37.744Z,43.10
2018-02-18T21:25:13.004Z,47.43
2018-02-18T21:27:48.462Z,47.40
2018-02-18T21:30:23.566Z,53.10
2018-02-18T21:32:58.522Z,51.67
2018-02-18T21:35:33.498Z,55.87
2018-02-18T21:38:07.461Z,57.33
2018-02-18T21:40:41.773Z,54.30
2018-02-18T21:43:15.377Z,45.17
2018-02-18T21:45:48.769Z,53.97
2018-02-18T21:48:22.162Z,47.70
2018-02-18T21:50:55.550Z,54.77
2018-02-18T21:53:28.755Z,57.20
2018-02-18T21:56:01.538Z,56.43
2018-02-18T21:58:34.792Z,53.70
2018-02-18T22:01:08.076Z,47.83
2018-02-18T22:03:40.707Z,46.93
2018-02-18T22:06:13.285Z,57.03
2018-02-18T22:08:45.826Z,49.30
2018-02-18T22:11:18.289Z,43.83
2018-02-18T22:13:50.975Z,56.90
2018-02-18T22:16:24.206Z,56.73
2018-02-18T22:18:56.584Z,59.10
2018-02-18T22:21:29.180Z,43.73
2018-02-18T22:24:01.919Z,36.47
2018-02-18T22:26:35.335Z,51.63
2018-02-18T22:29:08.758Z,56.80
2018-02-18T22:31:41.629Z,45.60
2018-02-18T22:34:15.045Z,55.83
2018-02-18T22:36:47.893Z,45.07
2018-02-18T22:39:20.820Z,48.40
2018-02-18T22:41:53.499Z,54.17
2018-02-18T22:44:27.297Z,47.07
2018-02-18T22:46:59.719Z,47.60
2018-02-18T22:49:32.850Z,41.90
2018-02-18T22:52:05.889Z,50.20
2018-02-18T22:54:38.748Z,48.47
2018-02-18T22:57:11.237Z,31.20
2018-02-18T22:59:43.768Z,45.37
2018-02-18T23:02:16.253Z,34.40
2018-02-18T23:04:49.617Z,42.17
2018-02-18T23:07:22.086Z,39.40
2018-02-18T23:09:55.204Z,49.13
2018-02-18T23:12:27.701Z,35.30
2018-02-18T23:15:00.171Z,35.13
2018-02-18T23:17:33.516Z,38.83
2018-02-18T23:20:05.910Z,35.43
2018-02-18T23:22:38.279Z,38.03
2018-02-18T23:25:10.843Z,39.60
2018-02-18T23:27:45.181Z,28.93
2018-02-18T23:30:17.760Z,36.67
2018-02-18T23:32:50.523Z,31.57
2018-02-18T23:35:23.083Z,44.90
2018-02-18T23:37:55.740Z,38.20
2018-02-18T23:40:28.907Z,36.20
2018-02-18T23:43:01.750Z,43.50
2018-02-18T23:45:34.358Z,32.27
2018-02-18T23:48:06.649Z,42.23
2018-02-18T23:50:39.820Z,35.70
2018-02-18T23:53:12.348Z,30.80
2018-02-18T23:55:45.330Z,48.10
2018-02-18T23:58:18.297Z,31.30
